createdAt,value
2022-09-07T00:00:38.249Z,21.50
2022-09-07T00:02:40.996Z,21.40
2022-09-07T00:04:43.860Z,21.40
2022-09-07T00:06:46.577Z,21.40
2022-09-07T00:08:49.238Z,21.30
2022-09-07T00:10:52.769Z,21.30
2022-09-07T00:12:55.441Z,21.30
2022-09-07T00:14:58.317Z,21.30
2022-09-07T00:17:01.214Z,21.30
2022-09-07T00:19:04.182Z,21.40
2022-09-07T00:21:07.747Z,21.30
2022-09-07T00:23:10.437Z,21.40
2022-09-07T00:25:13.139Z,21.50
2022-09-07T00:27:15.806Z,21.70
2022-09-07T00:29:18.493Z,22.00
2022-09-07T00:31:21.898Z,22.10
2022-09-07T00:33:24.873Z,22.00
2022-09-07T00:38:03.532Z,21.80
2022-09-07T00:40:07.700Z,21.70
2022-09-07T00:42:12.571Z,21.60
2022-09-07T00:44:32.863Z,21.40
2022-09-07T00:46:36.396Z,21.40
2022-09-07T00:48:40.974Z,21.30
2022-09-07T00:50:45.526Z,21.30
2022-09-07T00:52:50.075Z,21.10
2022-09-07T00:54:54.085Z,21.10
2022-09-07T00:56:56.991Z,21.10
2022-09-07T00:59:00.099Z,20.90
2022-09-07T01:01:02.782Z,20.90
2022-09-07T01:03:06.223Z,20.80
2022-09-07T01:05:12.659Z,20.80
2022-09-07T01:07:15.654Z,20.70
2022-09-07T01:09:20.126Z,20.70
2022-09-07T01:11:23.103Z,20.70
2022-09-07T01:13:26.724Z,20.60
2022-09-07T01:15:32.385Z,20.60
2022-09-07T01:17:38.734Z,20.50
2022-09-07T01:19:50.549Z,20.50
2022-09-07T01:21:56.814Z,20.50
2022-09-07T01:24:08.771Z,20.50
2022-09-07T01:26:23.830Z,20.50
2022-09-07T01:28:27.605Z,20.30
2022-09-07T01:30:31.604Z,20.30
2022-09-07T01:32:37.981Z,20.30
2022-09-07T01:34:41.591Z,20.10
2022-09-07T01:36:46.691Z,20.20
2022-09-07T01:38:51.966Z,20.10
2022-09-07T01:40:56.487Z,20.10
2022-09-07T01:43:00.999Z,20.00
2022-09-07T01:45:04.558Z,20.00
2022-09-07T01:47:09.147Z,19.80
2022-09-07T01:49:13.682Z,19.80
2022-09-07T01:51:17.204Z,19.80
2022-09-07T01:53:21.715Z,19.60
2022-09-07T01:55:26.215Z,19.60
2022-09-07T01:57:30.947Z,19.60
2022-09-07T01:59:35.277Z,19.60
2022-09-07T02:01:40.577Z,19.50
2022-09-07T02:03:45.138Z,19.50
2022-09-07T02:05:49.651Z,19.30
2022-09-07T02:07:53.926Z,19.30
2022-09-07T02:09:58.474Z,19.10
2022-09-07T02:12:03.142Z,18.80
2022-09-07T02:14:07.954Z,18.80
2022-09-07T02:16:12.641Z,18.40
2022-09-07T02:18:15.339Z,18.30
2022-09-07T02:20:20.191Z,18.30
2022-09-07T02:22:24.814Z,18.20
2022-09-07T02:24:29.302Z,18.10
2022-09-07T02:26:32.730Z,18.10
2022-09-07T02:28:36.537Z,18.00
2022-09-07T02:30:39.618Z,18.00
2022-09-07T02:32:42.467Z,17.90
2022-09-07T02:34:45.579Z,17.90
2022-09-07T02:36:49.231Z,17.90
2022-09-07T02:38:52.216Z,17.80
2022-09-07T02:40:55.830Z,17.80
2022-09-07T02:42:59.495Z,17.70
2022-09-07T02:45:04.417Z,17.70
2022-09-07T02:47:12.230Z,17.50
2022-09-07T02:49:17.543Z,17.30
2022-09-07T02:51:22.815Z,17.20
2022-09-07T02:53:29.165Z,17.20
2022-09-07T02:55:34.574Z,17.30
2022-09-07T02:57:40.037Z,17.30
2022-09-07T03:02:03.598Z,17.40
2022-09-07T03:04:09.003Z,17.30
2022-09-07T03:06:14.153Z,17.30
2022-09-07T03:08:18.134Z,17.20
2022-09-07T03:10:21.346Z,17.20
2022-09-07T03:12:24.154Z,17.20
2022-09-07T03:14:28.651Z,17.10
2022-09-07T03:16:31.350Z,17.10
2022-09-07T03:18:34.054Z,17.10
2022-09-07T03:20:36.762Z,17.20
2022-09-07T03:22:39.434Z,17.10
2022-09-07T03:24:42.933Z,17.20
2022-09-07T03:26:46.427Z,17.20
2022-09-07T03:28:49.135Z,17.20
2022-09-07T03:30:51.900Z,17.30
2022-09-07T03:32:54.527Z,17.30
2022-09-07T03:34:57.801Z,17.30
2022-09-07T03:37:00.602Z,17.40
2022-09-07T03:39:03.894Z,17.40
2022-09-07T03:41:07.088Z,17.40
2022-09-07T03:43:09.815Z,17.40
2022-09-07T03:45:12.497Z,17.40
2022-09-07T03:47:15.532Z,17.50
2022-09-07T03:49:18.418Z,17.50
2022-09-07T03:51:21.091Z,17.40
2022-09-07T03:53:23.846Z,17.40
2022-09-07T03:55:26.519Z,17.40
2022-09-07T03:57:29.267Z,17.40
2022-09-07T03:59:31.963Z,17.40
2022-09-07T04:01:34.790Z,17.50
2022-09-07T04:03:37.754Z,17.40
2022-09-07T04:05:40.438Z,17.40
2022-09-07T04:07:43.136Z,17.40
2022-09-07T04:09:46.005Z,17.40
2022-09-07T04:11:48.778Z,17.50
2022-09-07T04:13:51.544Z,17.50
2022-09-07T04:15:54.540Z,17.40
2022-09-07T04:17:57.322Z,17.40
2022-09-07T04:20:00.118Z,17.40
2022-09-07T04:22:02.754Z,17.40
2022-09-07T04:24:06.191Z,17.30
2022-09-07T04:26:13.394Z,17.30
2022-09-07T04:28:16.710Z,17.20
2022-09-07T04:30:19.420Z,17.10
2022-09-07T04:32:22.158Z,17.10
2022-09-07T04:34:24.850Z,17.10
2022-09-07T04:36:27.855Z,17.10
2022-09-07T04:38:30.785Z,17.10
2022-09-07T04:40:33.566Z,17.10
2022-09-07T04:42:36.278Z,17.10
2022-09-07T04:44:38.973Z,17.10
2022-09-07T04:46:41.671Z,17.00
2022-09-07T04:48:44.348Z,17.00
2022-09-07T04:50:47.026Z,17.00
2022-09-07T04:52:49.738Z,17.00
2022-09-07T04:54:52.414Z,16.90
2022-09-07T04:56:55.119Z,16.90
2022-09-07T04:58:58.822Z,16.90
2022-09-07T05:01:01.946Z,17.00
2022-09-07T05:03:04.730Z,16.90
2022-09-07T05:05:08.174Z,16.90
2022-09-07T05:07:10.878Z,16.80
2022-09-07T05:09:13.560Z,16.80
2022-09-07T05:11:16.449Z,16.70
2022-09-07T05:13:19.452Z,16.60
2022-09-07T05:15:22.117Z,16.70
2022-09-07T05:17:24.988Z,16.70
2022-09-07T05:19:27.831Z,16.70
2022-09-07T05:21:32.114Z,16.80
2022-09-07T05:23:34.782Z,16.70
2022-09-07T05:25:39.387Z,16.80
2022-09-07T05:27:42.057Z,16.70
2022-09-07T05:31:49.585Z,16.70
2022-09-07T05:35:57.852Z,16.70
2022-09-07T05:38:00.578Z,16.70
2022-09-07T05:40:04.194Z,16.70
2022-09-07T05:42:07.247Z,16.70
2022-09-07T05:46:15.016Z,16.80
2022-09-07T05:48:17.761Z,16.90
2022-09-07T05:50:20.471Z,17.00
2022-09-07T05:52:23.140Z,17.10
2022-09-07T05:54:26.062Z,17.10
2022-09-07T05:56:28.822Z,17.20
2022-09-07T05:58:32.389Z,17.20
2022-09-07T06:00:35.058Z,17.20
2022-09-07T06:02:39.775Z,17.20
2022-09-07T06:04:42.561Z,17.20
2022-09-07T06:06:59.362Z,17.20
2022-09-07T06:08:51.862Z,17.30
2022-09-07T06:10:54.587Z,17.20
2022-09-07T06:15:13.262Z,17.30
2022-09-07T06:17:15.978Z,17.30
2022-09-07T06:19:18.710Z,17.40
2022-09-07T06:21:22.390Z,17.40
2022-09-07T06:23:25.146Z,17.40
2022-09-07T06:25:27.814Z,17.50
2022-09-07T06:27:30.610Z,17.50
2022-09-07T06:29:33.297Z,17.50
2022-09-07T06:33:41.310Z,17.50
2022-09-07T06:35:43.984Z,17.60
2022-09-07T06:37:46.678Z,17.60
2022-09-07T06:39:49.412Z,17.60
2022-09-07T06:41:59.331Z,17.70
2022-09-07T06:43:57.347Z,17.70
2022-09-07T06:48:04.886Z,17.80
2022-09-07T06:50:08.818Z,17.80
2022-09-07T06:52:11.519Z,17.80
2022-09-07T06:56:19.127Z,17.90
2022-09-07T06:58:23.680Z,17.90
2022-09-07T07:00:26.375Z,17.90
2022-09-07T07:02:29.080Z,18.00
2022-09-07T07:04:34.136Z,18.00
2022-09-07T07:06:37.682Z,18.00
2022-09-07T07:08:40.359Z,18.00
2022-09-07T07:10:43.284Z,18.10
2022-09-07T07:12:45.997Z,18.10
2022-09-07T07:14:48.694Z,18.20
2022-09-07T07:16:51.554Z,18.30
2022-09-07T07:18:55.666Z,18.30
2022-09-07T07:20:58.519Z,18.30
2022-09-07T07:23:01.190Z,18.40
2022-09-07T07:25:04.450Z,18.40
2022-09-07T07:27:07.148Z,18.40
2022-09-07T07:29:09.856Z,18.40
2022-09-07T07:31:13.391Z,18.40
2022-09-07T07:33:16.261Z,18.40
2022-09-07T07:35:18.971Z,18.40
2022-09-07T07:37:27.297Z,18.30
2022-09-07T07:43:36.239Z,18.40
2022-09-07T07:45:56.030Z,18.40
2022-09-07T07:47:48.953Z,18.60
2022-09-07T07:50:30.552Z,18.60
2022-09-07T07:54:00.680Z,18.70
2022-09-07T07:56:04.282Z,18.80
2022-09-07T07:58:06.901Z,18.80
2022-09-07T08:00:10.986Z,18.90
2022-09-07T08:02:15.512Z,19.00
2022-09-07T08:04:18.224Z,19.00
2022-09-07T08:06:21.173Z,19.00
2022-09-07T08:08:24.218Z,19.00
2022-09-07T08:10:28.704Z,19.10
2022-09-07T08:12:31.366Z,19.10
2022-09-07T08:14:48.688Z,19.10
2022-09-07T08:16:51.333Z,20.90
2022-09-07T08:18:54.001Z,19.10
2022-09-07T08:21:12.927Z,19.20
2022-09-07T08:23:15.670Z,20.00
2022-09-07T08:25:18.652Z,19.40
2022-09-07T08:27:21.153Z,19.30
2022-09-07T08:29:23.778Z,19.40
2022-09-07T08:31:26.416Z,19.40
2022-09-07T08:33:28.990Z,19.50
2022-09-07T08:35:31.479Z,19.50
2022-09-07T08:37:33.983Z,19.50
2022-09-07T08:39:36.604Z,19.60
2022-09-07T08:41:49.510Z,19.60
2022-09-07T08:43:54.052Z,19.60
2022-09-07T08:45:59.642Z,19.70
2022-09-07T08:48:04.134Z,19.80
2022-09-07T08:50:09.713Z,19.80
2022-09-07T08:52:13.903Z,20.00
2022-09-07T08:54:16.706Z,20.10
2022-09-07T08:56:21.395Z,20.10
2022-09-07T08:58:47.626Z,20.10
2022-09-07T09:00:30.862Z,20.10
2022-09-07T09:02:40.312Z,20.10
2022-09-07T09:05:16.279Z,20.10
2022-09-07T09:06:44.551Z,20.10
2022-09-07T09:08:50.919Z,20.20
2022-09-07T09:10:56.084Z,20.30
2022-09-07T09:13:15.879Z,20.50
2022-09-07T09:15:22.636Z,20.50
2022-09-07T09:19:44.503Z,20.60
2022-09-07T09:21:47.239Z,20.60
2022-09-07T09:23:51.498Z,20.60
2022-09-07T09:25:54.682Z,20.60
2022-09-07T09:27:57.206Z,20.70
2022-09-07T09:29:59.696Z,20.70
2022-09-07T09:32:21.382Z,20.70
2022-09-07T09:34:27.206Z,20.80
2022-09-07T09:36:30.155Z,20.90
2022-09-07T09:38:34.347Z,21.00
2022-09-07T09:40:37.174Z,21.00
2022-09-07T09:42:40.196Z,21.10
2022-09-07T09:44:43.162Z,21.20
2022-09-07T09:46:47.769Z,21.10
2022-09-07T09:48:52.838Z,21.20
2022-09-07T09:53:01.066Z,21.30
2022-09-07T09:55:33.274Z,21.40
2022-09-07T09:57:13.063Z,21.40
2022-09-07T10:04:02.243Z,21.50
2022-09-07T10:05:49.010Z,21.60
2022-09-07T10:07:51.877Z,21.60
2022-09-07T10:09:55.182Z,21.60
2022-09-07T10:12:06.743Z,21.70
2022-09-07T10:14:03.786Z,22.00
2022-09-07T10:16:07.117Z,22.30
2022-09-07T10:18:17.938Z,22.50
2022-09-07T10:20:31.370Z,22.60
2022-09-07T10:22:35.132Z,22.70
2022-09-07T10:24:38.882Z,22.90
2022-09-07T10:26:43.860Z,23.00
2022-09-07T10:30:55.135Z,23.40
2022-09-07T10:33:00.319Z,23.60
2022-09-07T10:35:06.034Z,23.90
2022-09-07T10:37:09.591Z,23.70
2022-09-07T10:39:13.123Z,23.60
2022-09-07T10:41:16.906Z,23.50
2022-09-07T10:43:22.111Z,23.40
2022-09-07T10:47:46.263Z,23.40
2022-09-07T10:51:58.239Z,23.40
2022-09-07T10:56:09.167Z,23.40
2022-09-07T10:58:15.553Z,23.50
2022-09-07T11:00:19.312Z,23.50
2022-09-07T11:02:23.692Z,23.40
2022-09-07T11:04:30.342Z,23.40
2022-09-07T11:06:33.987Z,23.40
2022-09-07T11:10:46.214Z,23.50
2022-09-07T11:12:49.850Z,23.40
2022-09-07T11:14:54.175Z,23.30
2022-09-07T11:16:57.698Z,23.30
2022-09-07T11:21:07.478Z,23.20
2022-09-07T11:23:13.320Z,23.20
2022-09-07T11:25:32.801Z,23.10
2022-09-07T11:27:23.560Z,23.10
2022-09-07T11:29:29.489Z,23.00
2022-09-07T11:31:34.597Z,23.00
2022-09-07T11:33:39.303Z,23.00
2022-09-07T11:35:45.570Z,23.00
2022-09-07T11:37:52.202Z,23.00
2022-09-07T11:39:57.171Z,22.90
2022-09-07T11:42:42.656Z,22.90
2022-09-07T11:44:10.247Z,23.00
2022-09-07T11:48:30.932Z,23.10
2022-09-07T11:50:35.394Z,23.20
2022-09-07T11:52:39.221Z,23.20
2022-09-07T11:54:43.924Z,23.20
2022-09-07T11:56:48.254Z,23.20
2022-09-07T11:59:22.066Z,23.20
2022-09-07T12:03:54.156Z,23.40
2022-09-07T12:06:02.010Z,23.40
2022-09-07T12:08:12.744Z,23.40
2022-09-07T12:10:46.617Z,23.50
2022-09-07T12:15:15.721Z,24.10
2022-09-07T12:17:25.707Z,24.20
2022-09-07T12:19:28.794Z,24.40
2022-09-07T12:21:33.283Z,24.60
2022-09-07T12:23:35.797Z,24.70
2022-09-07T12:25:38.275Z,24.80
2022-09-07T12:27:40.784Z,24.80
2022-09-07T12:29:46.187Z,24.90
2022-09-07T12:33:54.882Z,24.90
2022-09-07T12:35:58.485Z,24.90
2022-09-07T12:38:01.397Z,24.80
2022-09-07T12:40:21.550Z,24.90
2022-09-07T12:42:32.954Z,25.10
2022-09-07T12:44:29.809Z,25.00
2022-09-07T12:46:49.989Z,25.00
2022-09-07T12:48:55.403Z,25.00
2022-09-07T12:50:59.702Z,24.90
2022-09-07T12:53:30.459Z,24.90
2022-09-07T12:57:46.482Z,24.60
2022-09-07T12:59:52.850Z,24.60
2022-09-07T13:01:57.569Z,24.60
2022-09-07T13:04:05.194Z,24.50
2022-09-07T13:06:10.093Z,24.40
2022-09-07T13:08:20.976Z,24.30
2022-09-07T13:10:30.632Z,24.40
2022-09-07T13:14:38.446Z,24.40
2022-09-07T13:18:47.034Z,24.60
2022-09-07T13:20:53.667Z,24.60
2022-09-07T13:23:24.574Z,24.50
2022-09-07T13:25:44.921Z,24.70
2022-09-07T13:27:51.925Z,24.80
2022-09-07T13:29:55.651Z,24.80
2022-09-07T13:32:01.069Z,24.80
2022-09-07T13:34:05.694Z,24.80
2022-09-07T13:36:15.834Z,24.70
2022-09-07T13:38:19.305Z,24.60
2022-09-07T13:40:23.629Z,24.50
2022-09-07T13:42:27.943Z,24.70
2022-09-07T13:44:31.838Z,24.80
2022-09-07T13:46:38.156Z,24.80
2022-09-07T13:48:42.446Z,24.70
2022-09-07T13:50:47.042Z,24.60
2022-09-07T13:53:00.121Z,24.50
2022-09-07T13:55:12.549Z,24.40
2022-09-07T13:57:17.522Z,24.40
2022-09-07T13:59:21.457Z,24.50
2022-09-07T14:01:24.805Z,24.60
2022-09-07T14:03:29.612Z,24.70
2022-09-07T14:05:32.585Z,24.70
2022-09-07T14:07:35.193Z,24.70
2022-09-07T14:09:37.912Z,24.70
2022-09-07T14:11:41.535Z,24.90
2022-09-07T14:13:44.326Z,25.10
2022-09-07T14:15:47.451Z,25.20
2022-09-07T14:17:51.986Z,25.20
2022-09-07T14:19:56.274Z,25.10
2022-09-07T14:21:59.893Z,25.20
2022-09-07T14:24:04.496Z,25.30
2022-09-07T14:26:17.752Z,25.40
2022-09-07T14:28:31.311Z,25.40
2022-09-07T14:30:33.948Z,25.60
2022-09-07T14:32:36.710Z,25.80
2022-09-07T14:34:39.630Z,25.90
2022-09-07T14:36:46.286Z,25.60
2022-09-07T14:40:52.343Z,25.70
2022-09-07T14:42:55.208Z,25.60
2022-09-07T14:45:16.996Z,25.50
2022-09-07T14:47:24.055Z,25.50
2022-09-07T14:49:26.722Z,25.50
2022-09-07T14:51:36.236Z,25.40
2022-09-07T14:53:35.154Z,25.70
2022-09-07T14:55:39.248Z,25.20
2022-09-07T14:57:41.739Z,25.10
2022-09-07T14:59:44.951Z,25.00
2022-09-07T15:01:47.615Z,25.10
2022-09-07T15:03:59.937Z,25.10
2022-09-07T15:06:03.338Z,25.10
2022-09-07T15:08:06.126Z,25.20
2022-09-07T15:10:15.290Z,25.30
2022-09-07T15:12:27.158Z,25.50
2022-09-07T15:14:25.052Z,25.50
2022-09-07T15:16:28.538Z,25.50
2022-09-07T15:18:49.191Z,25.30
2022-09-07T15:20:52.314Z,25.20
2022-09-07T15:22:56.141Z,25.20
2022-09-07T15:24:58.642Z,25.10
2022-09-07T15:27:02.574Z,25.00
2022-09-07T15:29:09.814Z,25.10
2022-09-07T15:33:15.371Z,25.20
2022-09-07T15:35:17.791Z,25.20
2022-09-07T15:39:25.802Z,25.20
2022-09-07T15:41:28.670Z,25.20
2022-09-07T15:43:31.282Z,25.20
2022-09-07T15:45:33.940Z,25.10
2022-09-07T15:47:48.195Z,25.00
2022-09-07T15:49:46.058Z,25.00
2022-09-07T15:55:54.274Z,24.60
2022-09-07T15:58:09.078Z,24.70
2022-09-07T16:00:01.256Z,24.60
2022-09-07T16:03:04.048Z,24.60
2022-09-07T16:04:11.345Z,24.60
2022-09-07T16:06:14.100Z,24.60
2022-09-07T16:10:20.874Z,24.50
2022-09-07T16:14:27.914Z,24.60
2022-09-07T16:18:35.752Z,24.60
2022-09-07T16:20:38.792Z,24.60
2022-09-07T16:24:46.010Z,24.70
2022-09-07T16:26:48.706Z,24.70
2022-09-07T16:28:51.786Z,24.80
2022-09-07T16:30:54.514Z,24.90
2022-09-07T16:32:57.636Z,25.10
2022-09-07T16:35:00.209Z,25.30
2022-09-07T16:37:02.840Z,25.50
2022-09-07T16:39:06.426Z,25.60
2022-09-07T16:41:12.948Z,25.70
2022-09-07T16:43:17.042Z,25.70
2022-09-07T16:47:24.635Z,25.80
2022-09-07T16:49:28.232Z,25.90
2022-09-07T16:51:31.034Z,25.90
2022-09-07T16:53:34.848Z,25.90
2022-09-07T17:00:00.741Z,25.80
2022-09-07T17:02:03.324Z,25.60
2022-09-07T17:04:10.719Z,25.50
2022-09-07T17:06:11.471Z,25.30
2022-09-07T17:08:14.523Z,25.30
2022-09-07T17:10:17.409Z,25.20
2022-09-07T17:12:19.948Z,25.20
2022-09-07T17:14:22.553Z,25.20
2022-09-07T17:16:26.239Z,25.10
2022-09-07T17:20:33.110Z,25.00
2022-09-07T17:22:35.630Z,25.00
2022-09-07T17:24:38.104Z,24.90
2022-09-07T17:26:42.267Z,24.90
2022-09-07T17:28:45.662Z,24.90
2022-09-07T17:30:48.383Z,24.80
2022-09-07T17:32:51.582Z,24.80
2022-09-07T17:34:54.755Z,24.70
2022-09-07T17:36:57.449Z,24.70
2022-09-07T17:39:17.540Z,24.60
2022-09-07T17:41:08.301Z,24.50
2022-09-07T17:45:15.313Z,24.40
2022-09-07T17:47:17.850Z,24.30
2022-09-07T17:49:20.402Z,24.20
2022-09-07T17:51:25.355Z,24.20
2022-09-07T17:53:29.179Z,24.10
2022-09-07T17:55:32.381Z,24.00
2022-09-07T17:57:35.331Z,23.90
2022-09-07T18:01:43.372Z,23.80
2022-09-07T18:03:46.201Z,23.70
2022-09-07T18:08:12.326Z,23.50
2022-09-07T18:10:15.769Z,23.40
2022-09-07T18:12:19.209Z,23.30
2022-09-07T18:14:22.560Z,23.20
2022-09-07T18:16:26.819Z,23.00
2022-09-07T18:18:29.880Z,22.90
2022-09-07T18:20:33.306Z,22.80
2022-09-07T18:22:36.802Z,22.70
2022-09-07T18:24:40.554Z,22.70
2022-09-07T18:26:44.749Z,22.70
2022-09-07T18:29:10.450Z,22.70
2022-09-07T18:30:54.965Z,22.60
2022-09-07T18:32:59.229Z,22.60
2022-09-07T18:35:02.509Z,22.50
2022-09-07T18:37:05.494Z,22.40
2022-09-07T18:39:08.799Z,22.40
2022-09-07T18:41:12.768Z,22.40
2022-09-07T18:43:16.378Z,22.40
2022-09-07T18:45:28.411Z,22.30
2022-09-07T18:47:28.888Z,22.30
2022-09-07T18:49:30.106Z,22.20
2022-09-07T18:52:51.630Z,22.10
2022-09-07T18:55:52.450Z,22.00
2022-09-07T18:57:55.712Z,21.90
2022-09-07T18:59:58.729Z,21.90
2022-09-07T19:02:04.965Z,21.80
2022-09-07T19:04:06.582Z,21.60
2022-09-07T19:06:12.094Z,21.50
2022-09-07T19:08:15.225Z,21.40
2022-09-07T19:10:18.479Z,21.20
2022-09-07T19:12:21.864Z,21.20
2022-09-07T19:14:25.086Z,21.10
2022-09-07T19:16:28.771Z,21.00
2022-09-07T19:18:31.988Z,21.00
2022-09-07T19:20:35.422Z,21.10
2022-09-07T19:22:38.752Z,21.00
2022-09-07T19:24:41.885Z,21.10
2022-09-07T19:26:46.192Z,21.00
2022-09-07T19:28:51.113Z,21.10
2022-09-07T19:30:53.862Z,21.10
2022-09-07T19:33:00.821Z,21.00
2022-09-07T19:35:02.279Z,21.10
2022-09-07T19:37:06.025Z,21.00
2022-09-07T19:39:10.943Z,20.90
2022-09-07T19:41:16.257Z,20.80
2022-09-07T19:43:19.385Z,20.70
2022-09-07T19:45:22.436Z,20.60
2022-09-07T19:47:25.276Z,20.50
2022-09-07T19:49:29.152Z,20.30
2022-09-07T19:51:36.727Z,20.20
2022-09-07T19:53:38.731Z,20.10
2022-09-07T19:55:42.601Z,20.10
2022-09-07T19:57:48.482Z,20.10
2022-09-07T19:59:52.984Z,20.00
2022-09-07T20:01:56.616Z,20.00
2022-09-07T20:04:02.427Z,20.00
2022-09-07T20:06:06.195Z,20.10
2022-09-07T20:08:08.794Z,20.10
2022-09-07T20:10:13.411Z,20.10
2022-09-07T20:12:18.765Z,20.20
2022-09-07T20:14:23.041Z,20.20
2022-09-07T20:16:28.038Z,20.30
2022-09-07T20:18:34.299Z,20.20
2022-09-07T20:20:41.821Z,20.20
2022-09-07T20:22:50.345Z,20.30
2022-09-07T20:24:57.221Z,20.30
2022-09-07T20:27:02.695Z,20.30
2022-09-07T20:31:13.939Z,20.20
2022-09-07T20:33:18.371Z,20.10
2022-09-07T20:35:22.830Z,20.10
2022-09-07T20:37:28.035Z,20.10
2022-09-07T20:39:36.929Z,20.10
2022-09-07T20:41:38.846Z,19.90
2022-09-07T20:43:43.366Z,19.90
2022-09-07T20:45:47.072Z,19.80
2022-09-07T20:47:51.866Z,19.60
2022-09-07T20:49:56.394Z,19.60
2022-09-07T20:52:01.788Z,19.60
2022-09-07T20:54:07.151Z,19.40
2022-09-07T20:56:13.349Z,19.40
2022-09-07T20:58:18.506Z,19.40
2022-09-07T21:00:23.808Z,19.40
2022-09-07T21:02:28.538Z,19.30
2022-09-07T21:04:34.054Z,19.40
2022-09-07T21:06:38.506Z,19.40
2022-09-07T21:08:44.320Z,19.40
2022-09-07T21:10:48.882Z,19.40
2022-09-07T21:12:53.652Z,19.40
2022-09-07T21:14:56.239Z,19.30
2022-09-07T21:16:58.763Z,19.30
2022-09-07T21:19:02.288Z,19.30
2022-09-07T21:21:19.165Z,19.20
2022-09-07T21:23:09.919Z,19.10
2022-09-07T21:25:12.535Z,19.00
2022-09-07T21:27:15.039Z,18.90
2022-09-07T21:29:20.638Z,18.80
2022-09-07T21:31:23.455Z,18.80
2022-09-07T21:33:26.667Z,18.70
2022-09-07T21:35:29.179Z,18.60
2022-09-07T21:37:31.818Z,18.60
2022-09-07T21:39:34.572Z,18.60
2022-09-07T21:41:37.072Z,18.60
2022-09-07T21:43:39.666Z,18.60
2022-09-07T21:45:42.677Z,18.60
2022-09-07T21:47:45.291Z,18.60
2022-09-07T21:49:47.829Z,18.60
2022-09-07T21:51:50.355Z,18.60
2022-09-07T21:53:53.153Z,18.50
2022-09-07T21:55:55.921Z,18.60
2022-09-07T21:57:58.407Z,18.60
2022-09-07T22:00:01.042Z,18.60
2022-09-07T22:02:05.578Z,18.60
2022-09-07T22:04:08.224Z,18.60
2022-09-07T22:06:11.304Z,18.70
2022-09-07T22:08:14.350Z,18.70
2022-09-07T22:10:17.216Z,18.70
2022-09-07T22:12:19.778Z,18.70
2022-09-07T22:14:22.922Z,18.70
2022-09-07T22:16:25.726Z,18.70
2022-09-07T22:18:29.756Z,18.60
2022-09-07T22:20:32.231Z,18.60
2022-09-07T22:22:34.896Z,18.60
2022-09-07T22:24:37.443Z,18.60
2022-09-07T22:26:39.942Z,18.60
2022-09-07T22:28:42.815Z,18.60
2022-09-07T22:30:45.315Z,18.60
2022-09-07T22:32:48.130Z,18.50
2022-09-07T22:34:51.199Z,18.40
2022-09-07T22:36:53.711Z,18.40
2022-09-07T22:38:57.008Z,18.40
2022-09-07T22:41:05.946Z,18.40
2022-09-07T22:43:08.468Z,18.40
2022-09-07T22:45:11.202Z,18.40
2022-09-07T22:47:13.713Z,18.40
2022-09-07T22:49:16.709Z,18.30
2022-09-07T22:51:19.429Z,18.30
2022-09-07T22:53:21.944Z,18.30
2022-09-07T22:55:24.423Z,18.30
2022-09-07T22:57:26.926Z,18.30
2022-09-07T22:59:29.398Z,18.30
2022-09-07T23:01:31.974Z,18.40
2022-09-07T23:03:34.912Z,18.40
2022-09-07T23:05:38.018Z,18.40
2022-09-07T23:07:40.500Z,18.40
2022-09-07T23:09:43.030Z,18.30
2022-09-07T23:11:46.202Z,18.30
2022-09-07T23:13:50.890Z,18.20
2022-09-07T23:15:53.709Z,18.20
2022-09-07T23:17:56.274Z,18.20
2022-09-07T23:19:58.731Z,18.20
2022-09-07T23:22:01.246Z,18.10
2022-09-07T23:26:21.014Z,18.10
2022-09-07T23:28:23.466Z,18.00
2022-09-07T23:30:25.997Z,18.00
2022-09-07T23:32:28.491Z,18.00
2022-09-07T23:34:30.930Z,18.00
2022-09-07T23:36:33.577Z,18.00
2022-09-07T23:38:36.070Z,17.90
2022-09-07T23:40:38.645Z,17.90
2022-09-07T23:42:41.258Z,17.90
2022-09-07T23:44:44.642Z,17.90
2022-09-07T23:46:47.138Z,17.80
2022-09-07T23:48:49.927Z,17.90
2022-09-07T23:50:52.984Z,17.90
2022-09-07T23:52:55.612Z,17.80
2022-09-07T23:54:58.080Z,17.80
2022-09-07T23:57:00.543Z,17.90
2022-09-07T23:59:03.053Z,17.90
